Aérodrome :
LOGIN :

S'inscrire | Disclaimer

   EN    FR    IT 

 










Légende :    VFR   VFR Marginal   IFR   IFR Intensif   IFR Très Intensif
Visi : 
Plafond : 
>= 8 km
>= 3000ft
5 à 8 km
1000 à 3000 ft
1500m à 5 km
500 à 1000 ft
800 à 1500m
200 à 500 ft
< 800m
< 200 ft
Symboles :   Orages  Brouillard  Fortes neiges  Fortes précipitations  Vent > 20 kt
SIGMETs :   Divers  Orages  Givrage  Turbulence  Onde Orograph.  Cendres Volcan.






- Altitude de l'aérodrome : 499 ft
- Code IATA : TLS


LFBO - Toulouse / Blagnac

DERNIER METAR :
  • 281300Z AUTO 07007KT 350V160 CAVOK 27/14 Q1023 NOSIG

METARs EXPIRÉS :
  • 281230Z AUTO VRB05KT CAVOK 27/13 Q1023 NOSIG
  • 281200Z AUTO 11007KT 060V150 CAVOK 26/14 Q1023 NOSIG
  • 281130Z AUTO 13005KT 050V190 CAVOK 26/15 Q1024 NOSIG
  • 281100Z AUTO 13006KT 070V180 CAVOK 25/15 Q1024 NOSIG
  • 281030Z AUTO 12007KT 060V180 CAVOK 25/15 Q1024 NOSIG

TAF TAF LFBO
Valide du 28 à 12h jusqu'au 29 à 18h UTC


281100Z 2812/2918 14008KT CAVOK
BECMG 2816/2818 VRB03KT
BECMG 2916/2918 14010KT
ATIS : +33 5 62 74 66 36



MET'MAP, la Météo Aéronautique d'un coup d'oeil ! - Copyright ORBIFLY Décembre 2007 - Disclaimer

ORBIFLY MET'MAP TEAM :

Programmation & Développement : Alexandra Zaïnal
Sur une idée originale de : Baudouin d'Aumeries
Assistance à la programmation : Marc-Olivier Méhu
Soutien technique & logistique : Manuel Goepfert

Contact : metmap@orbifly.com




SOURCES & CREDITS :

   NOAA